createdAt,value
2016-09-11T00:00:39.060Z,75.4
2016-09-11T00:15:38.283Z,74.32
2016-09-11T00:30:45.045Z,74.67
2016-09-11T00:45:49.163Z,74.14
2016-09-11T01:00:38.251Z,74.23
2016-09-11T01:15:42.893Z,74.1
2016-09-11T01:30:43.308Z,73.82
2016-09-11T01:45:38.257Z,73.72
2016-09-11T02:00:38.271Z,73.78
2016-09-11T02:15:51.381Z,73.66
2016-09-11T02:30:38.284Z,73.38
2016-09-11T02:45:38.325Z,73.47
2016-09-11T03:00:43.233Z,74.91
2016-09-11T03:15:49.201Z,75.52
2016-09-11T03:30:49.727Z,76.97
2016-09-11T03:45:42.306Z,76.49
2016-09-11T04:00:38.304Z,77.48
2016-09-11T04:15:38.323Z,77.44
2016-09-11T04:30:38.315Z,76.97
2016-09-11T04:45:38.344Z,76.92
2016-09-11T05:00:38.302Z,77.28
2016-09-11T05:15:38.301Z,77.81
2016-09-11T05:30:38.308Z,78.03
2016-09-11T05:45:43.386Z,77.7
2016-09-11T06:00:42.434Z,77.84
2016-09-11T06:15:38.319Z,78.92
2016-09-11T06:30:38.350Z,78.02
2016-09-11T06:45:38.323Z,76.04
2016-09-11T07:00:38.359Z,74.72
2016-09-11T07:15:45.039Z,73.65
2016-09-11T07:30:53.256Z,71.33
2016-09-11T07:45:43.377Z,66.4
2016-09-11T08:00:38.348Z,64.62
2016-09-11T08:15:38.331Z,61
2016-09-11T08:30:38.329Z,59.17
2016-09-11T08:45:38.348Z,59.99
2016-09-11T09:00:38.389Z,57.92
2016-09-11T09:15:43.344Z,56.4
2016-09-11T09:30:43.284Z,54.17
2016-09-11T09:45:40.581Z,53.29
2016-09-11T10:00:38.415Z,52.12
2016-09-11T10:15:42.512Z,50.66
2016-09-11T10:30:38.375Z,49.75
2016-09-11T10:45:38.350Z,48.1
2016-09-11T11:00:38.394Z,47.53
2016-09-11T11:15:44.964Z,45.93
2016-09-11T11:30:43.397Z,46.79
2016-09-11T11:45:44.575Z,45.2
2016-09-11T12:00:42.645Z,45.24
2016-09-11T12:15:38.387Z,46.39
2016-09-11T12:30:38.372Z,45.98
2016-09-11T12:45:38.509Z,44.76
2016-09-11T13:00:38.380Z,47.06
2016-09-11T13:15:40.522Z,45.76
2016-09-11T13:30:38.383Z,43.86
2016-09-11T13:45:38.373Z,44.07
2016-09-11T14:00:46.709Z,44.17
2016-09-11T14:15:38.394Z,45.04
2016-09-11T14:30:38.601Z,45.98
2016-09-11T14:45:38.398Z,43.66
2016-09-11T15:00:38.426Z,43.92
2016-09-11T15:15:42.632Z,44.03
2016-09-11T15:30:40.549Z,42.27
2016-09-11T15:45:40.514Z,42.17
2016-09-11T16:00:41.392Z,43.68
2016-09-11T16:15:41.334Z,43.88
2016-09-11T16:30:41.383Z,45.43
2016-09-11T16:45:42.527Z,47.54
2016-09-11T17:00:38.411Z,49.09
2016-09-11T17:15:38.408Z,50.74
2016-09-11T17:30:40.482Z,52.72
2016-09-11T17:45:43.050Z,56.07
2016-09-11T18:00:38.426Z,57.89
2016-09-11T18:15:44.634Z,60.97
2016-09-11T18:30:43.460Z,63
2016-09-11T18:45:42.498Z,63.97
2016-09-11T19:15:43.555Z,66.19
2016-09-11T19:30:40.935Z,66.96
2016-09-11T19:45:38.434Z,67.49
2016-09-11T20:00:43.496Z,68.79
2016-09-11T20:15:43.490Z,70.05
2016-09-11T20:30:38.450Z,69.86
2016-09-11T20:45:44.582Z,70.85
2016-09-11T21:00:38.462Z,71.21
2016-09-11T21:15:38.510Z,70.36
2016-09-11T21:30:38.469Z,71.74
2016-09-11T21:45:38.461Z,72.27
2016-09-11T22:00:43.409Z,71.36
2016-09-11T22:15:40.540Z,73
2016-09-11T22:30:42.585Z,72.59
2016-09-11T22:45:42.491Z,73.98
2016-09-11T23:00:38.532Z,74.45
2016-09-11T23:15:38.475Z,75.74
2016-09-11T23:30:42.889Z,76.19
2016-09-11T23:45:42.596Z,76.05
